Calera, AL

4:51 PM CST on December 22, 2014 (GMT -0600)
Country Hills | Change Station
CLOSE
Current Station
Personal Weather Station
Location: Montevallo, AL
Elevation: 509 ft
Nearby Weather Stations

Elev 509 ft 33.15 °N, 86.82 °W | Updated 10 minutes ago

Light Rain
Light Rain Mist
50.9 °F
Feels Like 50.9 °F
N
8.3
Wind Variable Wind from ESE

Today
High -- | Low -- °F
--% Chance of Precip.
Yesterday
High -- | Low -- °F
Precip. -- in
6:46 AM 4:44 PM
New Moon, 1% visible
Pressure 29.80 in
Visibility 5.0 miles
Clouds Overcast 500 ft
Dew Point 25 °F
Humidity 36%
Rainfall 0.09 in
Snow Depth Not available.
UV 0 out of 12
Pollen 1.90 out of 12
Air Quality Not available.
Flu Activity Not available.
METAR KEET 222153Z AUTO VRB06KT 5SM -RA BR OVC005 12/11 A2980 RMK AO2 RAE2057B40 SLP091 P0001 T01170111

More Conditions Fewer Conditions

Pressure 29.80 in
Visibility 5.0 miles
Clouds Overcast 500 ft
Dew Point 25 °F
Humidity 36%
Rainfall 0.09 in
Snow Depth Not available.
UV 0 out of 12
Pollen 1.90 out of 12
Air Quality Not available.
Flu Activity Not available.
METAR KEET 222153Z AUTO VRB06KT 5SM -RA BR OVC005 12/11 A2980 RMK AO2 RAE2057B40 SLP091 P0001 T01170111

More Conditions Fewer Conditions

10-Day Weather Forecast

Almanac

Astronomy

Dec. 22, 2014 Rise Set
Actual Time
Civil Twilight
Nautical Twilight
Astronomical Twilight
Moon
Length of Visible Light
Length of Day
Tomorrow will be .
, % of the Moon is Illuminated

Today's Extremes

State Highs State Lows

Community

WunderPhotos

Upload Photos

1,779,695 photos uploaded!

WunderBlogs® & News

Nearby

Air Quality

  Air Quality AQ Index Pollutant
Not available.

Snow Depth

Station Depth Elevation

Earthquake Activity

City Distance Mag. Time & Date
Minimum magnitude displayed is 2.5.

Coastal Water Temperatures

Place Temperature

Nearby Weather Stations